Weather at Perth International Airport

Public forecast

Using degrees Celsius for public forecast. Weather courtesy of forecast.io.

Current aviation weather report (METAR) for Perth International Airport

2022/11/27 02:30 (retrieved 24 minutes ago)

YPPH 270230Z 11012KT CAVOK 21/08 Q1017

Closest aviation forecast (TAF) to Perth International Airport

Forecast is more than 6 hours old.

Closest forecast is Haluoleo Airport, 1,711.7 nm (3,170.0 km) NNE.

2022/11/26 18:50 (retrieved 8 hours ago)

TAF WAWW 261700Z 2618/2706 04004KT 8000 SCT016 TEMPO 2619/2621 5000 -RA FEW014CB BECMG 2700/2701 26008KT